createdAt,value
2022-09-13T00:00:54.205Z,1.33
2022-09-13T00:03:21.758Z,1.20
2022-09-13T00:05:48.852Z,1.17
2022-09-13T00:08:16.553Z,1.27
2022-09-13T00:10:45.248Z,1.00
2022-09-13T00:13:14.343Z,1.33
2022-09-13T00:15:50.054Z,1.25
2022-09-13T00:18:18.565Z,1.13
2022-09-13T00:20:46.280Z,1.48
2022-09-13T00:23:14.063Z,1.60
2022-09-13T00:25:41.462Z,1.65
2022-09-13T00:28:08.467Z,1.42
2022-09-13T00:30:37.046Z,1.35
2022-09-13T00:33:04.870Z,1.48
2022-09-13T00:35:32.274Z,1.35
2022-09-13T00:38:02.098Z,1.20
2022-09-13T00:40:30.542Z,1.35
2022-09-13T00:42:57.719Z,1.50
2022-09-13T00:45:24.648Z,1.30
2022-09-13T00:48:05.548Z,1.25
2022-09-13T00:50:47.487Z,1.33
2022-09-13T00:55:51.247Z,1.67
2022-09-13T00:58:29.775Z,1.65
2022-09-13T01:00:59.860Z,1.42
2022-09-13T01:03:30.932Z,1.90
2022-09-13T01:06:10.314Z,1.40
2022-09-13T01:08:41.602Z,1.50
2022-09-13T01:11:29.894Z,1.20
2022-09-13T01:13:58.474Z,1.38
2022-09-13T01:16:26.515Z,1.42
2022-09-13T01:18:53.576Z,1.35
2022-09-13T01:22:16.308Z,1.63
2022-09-13T01:25:19.885Z,1.60
2022-09-13T01:28:25.795Z,1.73
2022-09-13T01:31:02.684Z,1.65
2022-09-13T01:33:52.175Z,1.35
2022-09-13T01:36:49.532Z,1.50
2022-09-13T01:39:58.896Z,1.38
2022-09-13T01:43:10.057Z,1.63
2022-09-13T01:46:13.867Z,1.73
2022-09-13T01:49:10.038Z,1.52
2022-09-13T01:51:54.543Z,1.52
2022-09-13T01:54:58.655Z,1.00
2022-09-13T01:57:41.256Z,1.30
2022-09-13T02:00:15.429Z,1.70
2022-09-13T02:03:12.983Z,1.50
2022-09-13T02:05:48.091Z,1.17
2022-09-13T02:08:44.423Z,1.42
2022-09-13T02:11:17.331Z,1.60
2022-09-13T02:13:55.603Z,1.38
2022-09-13T02:16:41.990Z,1.45
2022-09-13T02:19:19.077Z,1.30
2022-09-13T02:21:55.397Z,1.08
2022-09-13T02:24:31.354Z,1.27
2022-09-13T02:27:04.229Z,1.75
2022-09-13T02:29:33.488Z,1.15
2022-09-13T02:32:40.690Z,1.40
2022-09-13T02:35:12.380Z,1.45
2022-09-13T02:37:42.920Z,1.52
2022-09-13T02:40:22.912Z,1.40
2022-09-13T02:43:16.264Z,1.33
2022-09-13T02:45:59.327Z,1.38
2022-09-13T02:48:40.301Z,1.30
2022-09-13T02:51:30.563Z,1.20
2022-09-13T02:54:11.265Z,1.75
2022-09-13T02:56:51.628Z,1.30
2022-09-13T02:59:22.207Z,1.40
2022-09-13T03:02:04.034Z,1.20
2022-09-13T03:04:32.621Z,1.70
2022-09-13T03:07:00.045Z,1.20
2022-09-13T03:09:27.640Z,1.40
2022-09-13T03:12:23.286Z,1.20
2022-09-13T03:15:03.784Z,1.38
2022-09-13T03:18:08.538Z,1.35
2022-09-13T03:20:58.996Z,1.50
2022-09-13T03:23:43.473Z,1.55
2022-09-13T03:26:59.232Z,1.40
2022-09-13T03:29:44.265Z,1.45
2022-09-13T03:32:55.415Z,1.38
2022-09-13T03:35:53.266Z,1.35
2022-09-13T03:38:32.020Z,1.73
2022-09-13T03:41:17.344Z,1.80
2022-09-13T03:43:58.904Z,1.50
2022-09-13T03:46:57.588Z,1.35
2022-09-13T03:49:27.525Z,1.40
2022-09-13T03:51:55.100Z,2.03
2022-09-13T03:54:32.519Z,2.13
2022-09-13T03:57:21.527Z,2.05
2022-09-13T03:59:58.833Z,1.70
2022-09-13T04:02:27.134Z,1.58
2022-09-13T04:04:54.288Z,1.45
2022-09-13T04:07:24.306Z,1.40
2022-09-13T04:09:51.578Z,1.70
2022-09-13T04:12:19.163Z,0.95
2022-09-13T04:14:46.484Z,2.08
2022-09-13T04:17:14.567Z,1.77
2022-09-13T04:19:44.632Z,1.60
2022-09-13T04:22:11.619Z,1.55
2022-09-13T04:24:39.749Z,1.45
2022-09-13T04:27:07.320Z,1.25
2022-09-13T04:29:34.271Z,1.10
2022-09-13T04:32:01.492Z,1.42
2022-09-13T04:34:28.460Z,1.52
2022-09-13T04:36:55.509Z,1.90
2022-09-13T04:39:23.773Z,1.70
2022-09-13T04:41:52.175Z,2.72
2022-09-13T04:44:20.543Z,1.45
2022-09-13T04:46:49.160Z,1.60
2022-09-13T04:49:17.938Z,1.17
2022-09-13T04:51:45.069Z,1.90
2022-09-13T04:54:15.638Z,1.40
2022-09-13T04:56:44.452Z,1.30
2022-09-13T04:59:12.183Z,1.67
2022-09-13T05:01:39.547Z,1.58
2022-09-13T05:04:07.683Z,1.90
2022-09-13T05:06:35.040Z,1.48
2022-09-13T05:09:02.766Z,1.23
2022-09-13T05:11:30.362Z,1.75
2022-09-13T05:14:00.205Z,1.50
2022-09-13T05:16:32.688Z,1.60
2022-09-13T05:19:00.603Z,1.60
2022-09-13T05:21:30.973Z,2.15
2022-09-13T05:23:58.737Z,1.35
2022-09-13T05:26:29.551Z,1.50
2022-09-13T05:28:56.804Z,1.40
2022-09-13T05:31:44.561Z,1.73
2022-09-13T05:34:15.113Z,1.85
2022-09-13T05:36:43.123Z,1.60
2022-09-13T05:42:05.144Z,1.77
2022-09-13T05:44:32.177Z,1.90
2022-09-13T05:46:59.106Z,1.55
2022-09-13T05:49:26.246Z,1.73
2022-09-13T05:51:53.293Z,2.10
2022-09-13T05:54:20.397Z,1.98
2022-09-13T05:56:47.624Z,1.83
2022-09-13T05:59:14.876Z,2.05
2022-09-13T06:01:42.263Z,2.05
2022-09-13T06:04:09.287Z,2.03
2022-09-13T06:06:36.254Z,1.95
2022-09-13T06:09:06.617Z,2.13
2022-09-13T06:11:33.684Z,1.80
2022-09-13T06:14:00.782Z,2.28
2022-09-13T06:16:27.865Z,2.00
2022-09-13T06:18:55.076Z,2.22
2022-09-13T06:21:28.228Z,2.03
2022-09-13T06:23:56.630Z,1.52
2022-09-13T06:26:26.815Z,2.08
2022-09-13T06:28:57.126Z,2.03
2022-09-13T06:31:27.808Z,2.00
2022-09-13T06:34:02.443Z,2.25
2022-09-13T06:36:30.279Z,1.85
2022-09-13T06:38:58.045Z,2.22
2022-09-13T06:41:27.402Z,2.17
2022-09-13T06:43:57.578Z,1.63
2022-09-13T06:46:29.367Z,2.08
2022-09-13T06:49:00.052Z,1.95
2022-09-13T06:51:27.337Z,2.20
2022-09-13T06:53:56.643Z,2.55
2022-09-13T06:56:33.617Z,1.98
2022-09-13T06:59:04.855Z,2.17
2022-09-13T07:01:38.180Z,2.10
2022-09-13T07:04:09.710Z,1.90
2022-09-13T07:06:43.022Z,1.98
2022-09-13T07:09:18.118Z,2.30
2022-09-13T07:11:47.073Z,2.28
2022-09-13T07:14:26.483Z,1.80
2022-09-13T07:16:54.464Z,2.30
2022-09-13T07:19:24.357Z,2.03
2022-09-13T07:21:51.356Z,2.13
2022-09-13T07:24:19.475Z,1.88
2022-09-13T07:26:46.959Z,2.15
2022-09-13T07:29:19.185Z,2.13
2022-09-13T07:31:48.874Z,2.67
2022-09-13T07:34:25.048Z,2.58
2022-09-13T07:36:52.727Z,2.15
2022-09-13T07:39:22.630Z,1.80
2022-09-13T07:41:51.267Z,2.10
2022-09-13T07:44:18.412Z,1.70
2022-09-13T07:46:45.649Z,1.98
2022-09-13T07:49:16.229Z,2.35
2022-09-13T07:51:44.180Z,1.83
2022-09-13T07:54:15.373Z,2.10
2022-09-13T07:56:42.469Z,1.38
2022-09-13T07:59:15.505Z,1.58
2022-09-13T08:01:45.781Z,1.40
2022-09-13T08:04:24.629Z,2.05
2022-09-13T08:06:51.609Z,1.48
2022-09-13T08:09:18.969Z,1.73
2022-09-13T08:11:51.949Z,1.48
2022-09-13T08:14:21.304Z,1.40
2022-09-13T08:16:48.578Z,0.98
2022-09-13T08:19:18.353Z,1.20
2022-09-13T08:21:46.678Z,1.55
2022-09-13T08:24:21.615Z,2.63
2022-09-13T08:26:49.218Z,1.25
2022-09-13T08:29:17.129Z,1.50
2022-09-13T08:31:44.423Z,1.23
2022-09-13T08:34:14.598Z,1.00
2022-09-13T08:36:41.921Z,1.55
2022-09-13T08:39:11.933Z,1.52
2022-09-13T08:41:48.759Z,1.77
2022-09-13T08:44:30.125Z,1.13
2022-09-13T08:47:47.528Z,1.45
2022-09-13T08:50:28.474Z,1.88
2022-09-13T08:53:07.181Z,1.80
2022-09-13T08:55:51.776Z,1.42
2022-09-13T08:58:46.375Z,1.40
2022-09-13T09:01:31.516Z,1.80
2022-09-13T09:04:07.211Z,1.50
2022-09-13T09:06:36.547Z,1.35
2022-09-13T09:09:08.307Z,1.25
2022-09-13T09:14:32.557Z,1.20
2022-09-13T09:17:04.712Z,1.13
2022-09-13T09:19:42.144Z,1.38
2022-09-13T09:22:24.696Z,1.33
2022-09-13T09:24:56.253Z,1.40
2022-09-13T09:27:23.583Z,0.95
2022-09-13T09:29:58.266Z,1.27
2022-09-13T09:33:11.584Z,0.70
2022-09-13T09:36:08.235Z,0.77
2022-09-13T09:38:43.326Z,1.10
2022-09-13T09:41:32.660Z,0.80
2022-09-13T09:44:27.657Z,1.02
2022-09-13T09:47:15.541Z,1.00
2022-09-13T09:50:12.141Z,0.98
2022-09-13T09:52:53.530Z,1.08
2022-09-13T09:55:45.779Z,1.05
2022-09-13T09:58:16.893Z,1.20
2022-09-13T10:00:56.272Z,1.35
2022-09-13T10:03:33.988Z,1.30
2022-09-13T10:06:14.895Z,1.20
2022-09-13T10:08:44.311Z,1.10
2022-09-13T10:11:11.982Z,1.10
2022-09-13T10:13:38.957Z,1.30
2022-09-13T10:16:34.093Z,1.50
2022-09-13T10:19:24.978Z,1.20
2022-09-13T10:22:04.167Z,1.30
2022-09-13T10:24:32.066Z,1.27
2022-09-13T10:26:59.743Z,1.23
2022-09-13T10:29:28.560Z,1.27
2022-09-13T10:31:58.463Z,0.90
2022-09-13T10:34:31.890Z,0.70
2022-09-13T10:37:06.528Z,1.10
2022-09-13T10:39:36.553Z,0.60
2022-09-13T10:42:07.148Z,0.68
2022-09-13T10:45:07.719Z,1.03
2022-09-13T10:47:49.202Z,0.90
2022-09-13T10:50:27.979Z,0.80
2022-09-13T10:53:00.426Z,0.80
2022-09-13T10:55:35.819Z,0.73
2022-09-13T10:58:02.885Z,0.60
2022-09-13T11:00:57.789Z,0.90
2022-09-13T11:03:52.969Z,0.50
2022-09-13T11:06:52.359Z,0.50
2022-09-13T11:09:55.486Z,0.50
2022-09-13T11:12:41.293Z,0.60
2022-09-13T11:15:28.057Z,0.50
2022-09-13T11:18:22.743Z,0.43
2022-09-13T11:21:26.382Z,0.38
2022-09-13T11:24:22.478Z,0.43
2022-09-13T11:27:38.146Z,0.50
2022-09-13T11:30:29.880Z,0.50
2022-09-13T11:33:21.913Z,0.60
2022-09-13T11:38:56.822Z,0.80
2022-09-13T11:41:58.948Z,0.95
2022-09-13T11:45:18.180Z,0.70
2022-09-13T11:48:12.890Z,0.82
2022-09-13T11:51:36.103Z,1.13
2022-09-13T11:54:21.972Z,1.00
2022-09-13T11:56:56.101Z,1.13
2022-09-13T11:59:42.652Z,1.10
2022-09-13T12:02:24.524Z,1.80
2022-09-13T12:05:20.979Z,0.88
2022-09-13T12:07:52.685Z,1.38
2022-09-13T12:10:29.449Z,0.70
2022-09-13T12:12:58.283Z,1.30
2022-09-13T12:15:43.709Z,1.00
2022-09-13T12:18:17.651Z,1.02
2022-09-13T12:21:07.240Z,0.90
2022-09-13T12:23:50.215Z,1.33
2022-09-13T12:26:25.169Z,0.70
2022-09-13T12:29:01.761Z,0.60
2022-09-13T12:31:31.640Z,1.10
2022-09-13T12:33:59.874Z,0.80
2022-09-13T12:37:16.822Z,0.90
2022-09-13T12:40:12.139Z,0.90
2022-09-13T12:43:11.442Z,1.40
2022-09-13T12:46:04.185Z,1.10
2022-09-13T12:48:50.290Z,1.02
2022-09-13T12:52:01.903Z,0.70
2022-09-13T12:55:29.396Z,0.90
2022-09-13T12:58:34.458Z,1.00
2022-09-13T13:01:23.684Z,0.73
2022-09-13T13:03:58.020Z,0.60
2022-09-13T13:06:37.115Z,0.90
2022-09-13T13:09:27.882Z,0.98
2022-09-13T13:14:39.410Z,0.73
2022-09-13T13:18:20.154Z,1.00
2022-09-13T13:20:56.215Z,0.75
2022-09-13T13:23:34.445Z,0.75
2022-09-13T13:26:23.564Z,0.73
2022-09-13T13:29:16.692Z,0.93
2022-09-13T13:31:57.000Z,0.77
2022-09-13T13:34:23.846Z,0.90
2022-09-13T13:37:13.574Z,0.95
2022-09-13T13:40:13.092Z,0.70
2022-09-13T13:42:41.163Z,0.95
2022-09-13T13:45:26.677Z,0.88
2022-09-13T13:48:15.205Z,1.10
2022-09-13T13:51:17.298Z,0.90
2022-09-13T13:53:52.812Z,0.80
2022-09-13T13:56:25.042Z,1.10
2022-09-13T13:59:13.928Z,0.90
2022-09-13T14:01:49.171Z,0.52
2022-09-13T14:04:40.747Z,1.00
2022-09-13T14:10:17.491Z,0.82
2022-09-13T14:13:10.515Z,1.33
2022-09-13T14:15:51.736Z,0.68
2022-09-13T14:18:48.064Z,0.70
2022-09-13T14:21:30.109Z,0.98
2022-09-13T14:24:23.447Z,0.45
2022-09-13T14:26:58.516Z,0.52
2022-09-13T14:29:26.230Z,0.60
2022-09-13T14:32:07.151Z,0.95
2022-09-13T14:34:38.719Z,0.73
2022-09-13T14:37:17.477Z,0.60
2022-09-13T14:40:08.241Z,0.70
2022-09-13T14:42:47.679Z,0.40
2022-09-13T14:45:21.107Z,1.05
2022-09-13T14:48:18.537Z,0.32
2022-09-13T14:51:27.865Z,0.43
2022-09-13T14:54:08.599Z,0.30
2022-09-13T14:56:48.035Z,0.65
2022-09-13T14:59:44.844Z,0.40
2022-09-13T15:02:30.268Z,0.40
2022-09-13T15:05:00.756Z,0.30
2022-09-13T15:07:39.583Z,0.90
2022-09-13T15:10:12.536Z,0.77
2022-09-13T15:13:07.665Z,0.22
2022-09-13T15:15:41.208Z,0.77
2022-09-13T15:18:26.011Z,0.40
2022-09-13T15:21:01.632Z,0.45
2022-09-13T15:23:37.076Z,0.30
2022-09-13T15:26:23.095Z,0.65
2022-09-13T15:28:53.616Z,0.60
2022-09-13T15:31:26.253Z,0.20
2022-09-13T15:34:18.237Z,0.52
2022-09-13T15:37:01.651Z,0.30
2022-09-13T15:39:28.976Z,1.40
2022-09-13T15:42:00.914Z,0.50
2022-09-13T15:44:29.949Z,0.30
2022-09-13T15:47:04.436Z,0.73
2022-09-13T15:49:32.363Z,0.20
2022-09-13T15:52:05.625Z,0.43
2022-09-13T15:54:43.550Z,0.47
2022-09-13T15:57:22.061Z,0.28
2022-09-13T15:59:49.129Z,0.47
2022-09-13T16:02:21.663Z,0.20
2022-09-13T16:04:49.446Z,0.30
2022-09-13T16:07:16.827Z,0.20
2022-09-13T16:09:44.766Z,0.35
2022-09-13T16:12:11.814Z,0.60
2022-09-13T16:14:38.968Z,0.35
2022-09-13T16:17:22.833Z,0.20
2022-09-13T16:19:49.924Z,0.52
2022-09-13T16:22:17.156Z,0.40
2022-09-13T16:24:44.155Z,0.25
2022-09-13T16:27:17.953Z,0.20
2022-09-13T16:29:45.164Z,0.50
2022-09-13T16:32:12.488Z,0.20
2022-09-13T16:34:39.518Z,0.40
2022-09-13T16:37:06.488Z,0.30
2022-09-13T16:39:33.362Z,0.22
2022-09-13T16:42:00.302Z,0.20
2022-09-13T16:44:27.444Z,1.83
2022-09-13T16:46:54.500Z,0.77
2022-09-13T16:49:21.695Z,0.40
2022-09-13T16:51:48.649Z,0.40
2022-09-13T16:54:18.656Z,0.77
2022-09-13T16:56:45.631Z,0.47
2022-09-13T16:59:12.689Z,0.47
2022-09-13T17:01:39.950Z,0.20
2022-09-13T17:04:07.522Z,0.70
2022-09-13T17:06:34.529Z,0.35
2022-09-13T17:09:05.452Z,0.65
2022-09-13T17:11:41.331Z,1.02
2022-09-13T17:14:12.326Z,0.60
2022-09-13T17:16:50.726Z,0.35
2022-09-13T17:19:22.385Z,0.47
2022-09-13T17:21:50.315Z,0.60
2022-09-13T17:24:17.695Z,0.30
2022-09-13T17:26:46.835Z,0.30
2022-09-13T17:29:14.906Z,0.30
2022-09-13T17:31:43.593Z,0.40
2022-09-13T17:34:12.963Z,0.30
2022-09-13T17:36:41.865Z,0.30
2022-09-13T17:39:10.109Z,0.40
2022-09-13T17:41:37.724Z,0.52
2022-09-13T17:44:04.798Z,0.28
2022-09-13T17:46:31.936Z,0.30
2022-09-13T17:49:00.169Z,0.55
2022-09-13T17:51:32.838Z,0.65
2022-09-13T17:54:06.840Z,0.90
2022-09-13T17:56:40.972Z,0.40
2022-09-13T17:59:18.288Z,0.40
2022-09-13T18:01:51.839Z,0.50
2022-09-13T18:04:22.222Z,0.30
2022-09-13T18:06:52.269Z,0.47
2022-09-13T18:09:19.713Z,0.50
2022-09-13T18:11:46.795Z,0.40
2022-09-13T18:14:16.269Z,0.30
2022-09-13T18:16:43.882Z,0.40
2022-09-13T18:19:11.551Z,0.60
2022-09-13T18:21:38.602Z,0.28
2022-09-13T18:24:06.933Z,0.52
2022-09-13T18:26:34.255Z,0.60
2022-09-13T18:29:04.578Z,0.57
2022-09-13T18:31:34.569Z,0.35
2022-09-13T18:34:10.897Z,0.47
2022-09-13T18:36:38.815Z,0.52
2022-09-13T18:39:07.901Z,0.68
2022-09-13T18:41:42.509Z,0.43
2022-09-13T18:44:11.380Z,0.40
2022-09-13T18:46:39.257Z,0.63
2022-09-13T18:49:07.220Z,0.55
2022-09-13T18:51:36.473Z,0.43
2022-09-13T18:54:06.132Z,0.57
2022-09-13T18:56:36.079Z,0.43
2022-09-13T18:59:06.231Z,0.35
2022-09-13T19:01:36.797Z,0.45
2022-09-13T19:04:17.511Z,0.52
2022-09-13T19:06:48.393Z,0.52
2022-09-13T19:09:15.961Z,0.70
2022-09-13T19:11:47.749Z,0.50
2022-09-13T19:14:23.262Z,0.50
2022-09-13T19:16:52.532Z,0.50
2022-09-13T19:19:20.221Z,0.60
2022-09-13T19:21:47.406Z,0.40
2022-09-13T19:24:20.374Z,0.73
2022-09-13T19:26:51.183Z,0.75
2022-09-13T19:29:22.980Z,0.60
2022-09-13T19:31:52.530Z,0.60
2022-09-13T19:34:22.257Z,0.50
2022-09-13T19:36:53.506Z,0.50
2022-09-13T19:39:20.459Z,0.50
2022-09-13T19:41:47.527Z,0.52
2022-09-13T19:44:14.761Z,0.60
2022-09-13T19:46:42.832Z,0.80
2022-09-13T19:49:14.682Z,0.70
2022-09-13T19:51:45.531Z,0.60
2022-09-13T19:54:18.257Z,0.93
2022-09-13T19:56:45.341Z,0.50
2022-09-13T19:59:16.097Z,0.60
2022-09-13T20:01:45.620Z,0.60
2022-09-13T20:04:17.011Z,0.73
2022-09-13T20:06:47.371Z,0.57
2022-09-13T20:09:16.402Z,0.60
2022-09-13T20:11:45.422Z,0.40
2022-09-13T20:14:14.821Z,0.88
2022-09-13T20:16:42.912Z,0.60
2022-09-13T20:19:39.426Z,0.93
2022-09-13T20:22:09.856Z,0.77
2022-09-13T20:24:37.352Z,0.68
2022-09-13T20:27:04.522Z,0.70
2022-09-13T20:29:31.696Z,0.70
2022-09-13T20:31:59.532Z,0.65
2022-09-13T20:34:27.108Z,0.50
2022-09-13T20:36:54.162Z,0.63
2022-09-13T20:39:21.116Z,0.70
2022-09-13T20:41:50.146Z,0.50
2022-09-13T20:44:17.458Z,0.70
2022-09-13T20:46:44.501Z,0.85
2022-09-13T20:49:11.851Z,0.40
2022-09-13T20:51:39.060Z,0.40
2022-09-13T20:54:06.932Z,0.75
2022-09-13T20:56:33.829Z,0.73
2022-09-13T20:59:01.128Z,0.70
2022-09-13T21:01:30.211Z,0.63
2022-09-13T21:04:00.101Z,0.77
2022-09-13T21:06:30.368Z,0.50
2022-09-13T21:09:00.018Z,0.80
2022-09-13T21:11:35.028Z,0.73
2022-09-13T21:14:09.537Z,0.70
2022-09-13T21:16:39.685Z,0.50
2022-09-13T21:19:08.135Z,0.60
2022-09-13T21:21:39.796Z,0.80
2022-09-13T21:26:41.931Z,0.55
2022-09-13T21:29:10.345Z,0.70
2022-09-13T21:31:37.988Z,0.77
2022-09-13T21:34:10.917Z,0.63
2022-09-13T21:36:38.000Z,0.60
2022-09-13T21:39:05.951Z,0.88
2022-09-13T21:41:33.442Z,0.90
2022-09-13T21:44:00.495Z,1.30
2022-09-13T21:46:34.033Z,0.80
2022-09-13T21:49:04.905Z,0.90
2022-09-13T21:51:38.969Z,0.70
2022-09-13T21:54:10.883Z,0.98
2022-09-13T21:56:42.017Z,0.98
2022-09-13T21:59:17.061Z,0.93
2022-09-13T22:01:47.772Z,0.90
2022-09-13T22:04:24.146Z,1.10
2022-09-13T22:06:53.626Z,0.70
2022-09-13T22:09:26.236Z,0.70
2022-09-13T22:11:53.942Z,0.80
2022-09-13T22:14:22.464Z,0.77
2022-09-13T22:16:50.815Z,0.77
2022-09-13T22:19:25.926Z,0.90
2022-09-13T22:21:59.581Z,0.85
2022-09-13T22:24:31.142Z,1.05
2022-09-13T22:26:58.987Z,0.50
2022-09-13T22:29:26.795Z,0.80
2022-09-13T22:31:53.846Z,1.05
2022-09-13T22:34:24.307Z,0.80
2022-09-13T22:36:53.654Z,0.70
2022-09-13T22:39:20.697Z,0.98
2022-09-13T22:41:47.555Z,1.00
2022-09-13T22:44:15.607Z,0.80
2022-09-13T22:46:44.920Z,0.70
2022-09-13T22:49:15.100Z,1.00
2022-09-13T22:51:44.999Z,1.30
2022-09-13T22:54:13.097Z,0.80
2022-09-13T22:56:40.155Z,0.80
2022-09-13T22:59:12.385Z,0.93
2022-09-13T23:01:39.445Z,0.70
2022-09-13T23:04:07.162Z,0.95
2022-09-13T23:06:35.368Z,0.68
2022-09-13T23:09:06.400Z,1.10
2022-09-13T23:11:39.047Z,0.60
2022-09-13T23:14:10.341Z,0.90
2022-09-13T23:16:46.919Z,0.88
2022-09-13T23:19:15.247Z,0.70
2022-09-13T23:21:43.612Z,1.05
2022-09-13T23:24:17.537Z,0.93
2022-09-13T23:26:45.871Z,0.90
2022-09-13T23:29:17.593Z,0.80
2022-09-13T23:34:14.236Z,1.05
2022-09-13T23:36:43.922Z,0.70
2022-09-13T23:39:16.572Z,0.80
2022-09-13T23:41:45.087Z,1.02
2022-09-13T23:44:12.088Z,1.15
2022-09-13T23:46:39.266Z,0.80
2022-09-13T23:49:06.354Z,1.33
2022-09-13T23:51:33.617Z,0.90
2022-09-13T23:54:01.124Z,1.00
2022-09-13T23:56:30.939Z,0.80
2022-09-13T23:59:00.277Z,1.10
